createdAt,value
2022-09-14T00:01:25.737Z,14.00
2022-09-14T00:09:01.890Z,13.90
2022-09-14T00:16:40.478Z,13.81
2022-09-14T00:24:14.306Z,13.73
2022-09-14T00:31:49.649Z,13.61
2022-09-14T00:39:25.334Z,13.52
2022-09-14T00:47:03.833Z,13.44
2022-09-14T00:54:39.338Z,13.34
2022-09-14T01:02:15.892Z,13.29
2022-09-14T01:10:02.145Z,13.22
2022-09-14T01:17:42.605Z,13.16
2022-09-14T01:25:36.368Z,13.07
2022-09-14T01:33:17.257Z,13.01
2022-09-14T01:40:52.480Z,12.91
2022-09-14T01:48:35.583Z,12.85
2022-09-14T01:56:17.084Z,12.80
2022-09-14T02:03:58.065Z,12.74
2022-09-14T02:11:32.110Z,12.72
2022-09-14T02:19:07.403Z,12.69
2022-09-14T02:26:41.755Z,12.61
2022-09-14T02:34:25.663Z,12.55
2022-09-14T02:42:08.397Z,12.49
2022-09-14T02:49:51.538Z,12.44
2022-09-14T02:57:25.488Z,12.38
2022-09-14T03:05:00.954Z,12.31
2022-09-14T03:12:34.843Z,12.26
2022-09-14T03:20:11.471Z,12.21
2022-09-14T03:27:48.850Z,12.16
2022-09-14T03:35:24.471Z,12.10
2022-09-14T03:42:58.821Z,12.07
2022-09-14T03:50:34.724Z,12.05
2022-09-14T03:58:08.486Z,12.01
2022-09-14T04:05:45.405Z,11.98
2022-09-14T04:13:19.311Z,11.93
2022-09-14T04:20:59.162Z,11.87
2022-09-14T04:28:32.792Z,11.83
2022-09-14T04:36:10.276Z,11.78
2022-09-14T04:43:45.504Z,11.75
2022-09-14T04:51:24.403Z,11.71
2022-09-14T04:58:59.802Z,11.72
2022-09-14T05:06:37.675Z,11.74
2022-09-14T05:14:12.925Z,11.74
2022-09-14T05:21:48.308Z,11.74
2022-09-14T05:29:22.002Z,11.81
2022-09-14T05:36:57.317Z,11.82
2022-09-14T05:44:32.348Z,11.87
2022-09-14T05:52:07.366Z,11.94
2022-09-14T05:59:41.236Z,12.01
2022-09-14T06:07:18.845Z,12.13
2022-09-14T06:14:52.854Z,12.25
2022-09-14T06:22:27.930Z,12.38
2022-09-14T06:30:01.777Z,12.51
2022-09-14T06:37:36.867Z,12.64
2022-09-14T06:45:10.732Z,12.79
2022-09-14T06:52:45.860Z,13.00
2022-09-14T07:00:20.043Z,13.17
2022-09-14T07:07:55.236Z,13.31
2022-09-14T07:15:29.103Z,13.41
2022-09-14T07:23:04.236Z,13.53
2022-09-14T07:30:39.127Z,13.65
2022-09-14T07:38:14.148Z,13.81
2022-09-14T07:45:47.642Z,14.02
2022-09-14T07:53:22.771Z,14.28
2022-09-14T08:00:59.708Z,14.56
2022-09-14T08:08:36.998Z,14.74
2022-09-14T08:16:11.468Z,15.04
2022-09-14T08:23:46.746Z,15.35
2022-09-14T08:31:22.713Z,15.67
2022-09-14T08:38:58.241Z,16.08
2022-09-14T08:46:36.778Z,16.37
2022-09-14T08:54:12.134Z,16.51
2022-09-14T09:01:54.487Z,16.77
2022-09-14T09:09:39.083Z,16.71
2022-09-14T09:17:18.726Z,16.76
2022-09-14T09:24:55.804Z,16.76
2022-09-14T09:32:29.639Z,16.84
2022-09-14T09:40:15.261Z,16.89
2022-09-14T09:47:50.761Z,17.03
2022-09-14T09:55:32.931Z,16.99
2022-09-14T10:03:27.138Z,17.05
2022-09-14T10:11:03.877Z,17.09
2022-09-14T10:18:48.161Z,17.14
2022-09-14T10:26:28.943Z,17.26
2022-09-14T10:34:02.859Z,17.30
2022-09-14T10:41:54.823Z,17.39
2022-09-14T10:49:43.331Z,17.48
2022-09-14T10:57:27.740Z,17.51
2022-09-14T11:05:12.594Z,17.57
2022-09-14T11:12:57.345Z,17.80
2022-09-14T11:20:40.647Z,17.80
2022-09-14T11:28:21.081Z,17.84
2022-09-14T11:35:59.795Z,17.92
2022-09-14T11:43:45.048Z,18.05
2022-09-14T11:51:23.899Z,18.21
2022-09-14T11:59:00.523Z,18.32
2022-09-14T12:07:05.534Z,18.28
2022-09-14T12:14:44.514Z,18.31
2022-09-14T12:22:29.229Z,18.43
2022-09-14T12:30:04.555Z,18.40
2022-09-14T12:37:38.281Z,18.40
2022-09-14T12:45:52.220Z,18.45
2022-09-14T12:53:32.709Z,18.51
2022-09-14T13:01:23.069Z,18.61
2022-09-14T13:08:59.928Z,18.66
2022-09-14T13:16:47.585Z,18.62
2022-09-14T13:24:28.826Z,18.54
2022-09-14T13:32:04.954Z,18.54
2022-09-14T13:39:41.931Z,18.56
2022-09-14T13:47:22.134Z,18.54
2022-09-14T13:54:57.425Z,18.49
2022-09-14T14:02:35.038Z,18.45
2022-09-14T14:10:24.836Z,18.45
2022-09-14T14:18:00.962Z,18.41
2022-09-14T14:25:40.993Z,18.40
2022-09-14T14:33:20.995Z,18.40
2022-09-14T14:40:58.088Z,18.35
2022-09-14T14:48:33.286Z,18.25
2022-09-14T14:56:07.183Z,18.15
2022-09-14T15:03:42.256Z,18.11
2022-09-14T15:11:18.087Z,18.07
2022-09-14T15:18:53.041Z,17.99
2022-09-14T15:26:26.655Z,17.97
2022-09-14T15:34:01.760Z,17.95
2022-09-14T15:41:35.474Z,17.89
2022-09-14T15:49:14.177Z,17.84
2022-09-14T15:56:50.522Z,17.84
2022-09-14T16:04:25.573Z,17.80
2022-09-14T16:12:01.806Z,17.75
2022-09-14T16:19:37.235Z,17.67
2022-09-14T16:27:10.944Z,17.62
2022-09-14T16:34:45.978Z,17.57
2022-09-14T16:42:20.153Z,17.50
2022-09-14T16:49:55.171Z,17.41
2022-09-14T16:57:30.185Z,17.32
2022-09-14T17:05:05.798Z,17.28
2022-09-14T17:12:39.504Z,17.26
2022-09-14T17:20:14.509Z,17.17
2022-09-14T17:27:47.997Z,17.04
2022-09-14T17:35:23.304Z,16.96
2022-09-14T17:42:58.851Z,16.84
2022-09-14T17:50:35.035Z,16.80
2022-09-14T17:58:11.422Z,16.75
2022-09-14T18:05:55.213Z,16.71
2022-09-14T18:13:28.916Z,16.68
2022-09-14T18:21:05.124Z,16.66
2022-09-14T18:28:38.760Z,16.62
2022-09-14T18:36:15.183Z,16.57
2022-09-14T18:43:51.616Z,16.52
2022-09-14T18:51:27.709Z,16.48
2022-09-14T18:59:02.534Z,16.40
2022-09-14T19:06:38.763Z,16.38
2022-09-14T19:14:15.309Z,16.35
2022-09-14T19:21:50.381Z,16.30
2022-09-14T19:29:24.715Z,16.25
2022-09-14T19:37:00.434Z,16.21
2022-09-14T19:44:34.158Z,16.19
2022-09-14T19:52:09.272Z,16.11
2022-09-14T19:59:44.045Z,16.04
2022-09-14T20:07:19.074Z,16.01
2022-09-14T20:14:52.795Z,15.94
2022-09-14T20:22:27.881Z,15.87
2022-09-14T20:30:01.548Z,15.76
2022-09-14T20:37:36.650Z,15.67
2022-09-14T20:45:11.061Z,15.55
2022-09-14T20:52:46.227Z,15.48
2022-09-14T21:00:20.144Z,15.42
2022-09-14T21:07:56.457Z,15.38
2022-09-14T21:15:32.295Z,15.30
2022-09-14T21:23:07.910Z,15.25
2022-09-14T21:30:41.615Z,15.19
2022-09-14T21:38:16.631Z,15.09
2022-09-14T21:45:50.214Z,15.04
2022-09-14T21:53:25.384Z,14.98
2022-09-14T22:00:59.498Z,14.88
2022-09-14T22:08:36.982Z,14.82
2022-09-14T22:16:13.590Z,14.77
2022-09-14T22:23:52.157Z,14.69
2022-09-14T22:31:27.454Z,14.62
2022-09-14T22:39:03.204Z,14.52
2022-09-14T22:46:37.495Z,14.50
2022-09-14T22:54:12.529Z,14.46
2022-09-14T23:01:46.195Z,14.44
2022-09-14T23:09:22.971Z,14.44
2022-09-14T23:16:56.874Z,14.45
2022-09-14T23:24:31.990Z,14.41
2022-09-14T23:32:05.715Z,14.32
2022-09-14T23:39:41.106Z,14.27
2022-09-14T23:47:14.943Z,14.26
2022-09-14T23:54:50.230Z,14.23
